sensor_id;sensor_type;location;lat;lon;timestamp;P1;durP1;ratioP1;P2;durP2;ratioP2
37069;SDS011;22984;48.862;9.320;2022-07-23T00:02:08;4.75;;;4.35;;
37069;SDS011;22984;48.862;9.320;2022-07-23T00:04:34;4.60;;;3.90;;
37069;SDS011;22984;48.862;9.320;2022-07-23T00:07:00;4.15;;;3.75;;
37069;SDS011;22984;48.862;9.320;2022-07-23T00:09:26;3.85;;;3.65;;
37069;SDS011;22984;48.862;9.320;2022-07-23T00:11:53;4.97;;;3.78;;
37069;SDS011;22984;48.862;9.320;2022-07-23T00:14:19;4.07;;;3.78;;
37069;SDS011;22984;48.862;9.320;2022-07-23T00:16:45;3.73;;;3.43;;
37069;SDS011;22984;48.862;9.320;2022-07-23T00:19:11;4.07;;;3.80;;
37069;SDS011;22984;48.862;9.320;2022-07-23T00:21:37;4.03;;;3.63;;
37069;SDS011;22984;48.862;9.320;2022-07-23T00:24:03;3.72;;;3.40;;
37069;SDS011;22984;48.862;9.320;2022-07-23T00:26:30;4.10;;;3.80;;
37069;SDS011;22984;48.862;9.320;2022-07-23T00:28:56;6.47;;;3.88;;
37069;SDS011;22984;48.862;9.320;2022-07-23T00:31:22;4.20;;;3.70;;
37069;SDS011;22984;48.862;9.320;2022-07-23T00:33:48;7.40;;;3.97;;
37069;SDS011;22984;48.862;9.320;2022-07-23T00:36:14;4.03;;;3.67;;
37069;SDS011;22984;48.862;9.320;2022-07-23T00:38:40;3.63;;;3.40;;
37069;SDS011;22984;48.862;9.320;2022-07-23T00:41:06;4.07;;;3.65;;
37069;SDS011;22984;48.862;9.320;2022-07-23T00:43:32;3.47;;;3.17;;
37069;SDS011;22984;48.862;9.320;2022-07-23T00:45:58;4.05;;;3.28;;
37069;SDS011;22984;48.862;9.320;2022-07-23T00:48:24;5.35;;;3.20;;
37069;SDS011;22984;48.862;9.320;2022-07-23T00:50:50;3.38;;;3.00;;
37069;SDS011;22984;48.862;9.320;2022-07-23T00:53:16;3.20;;;2.92;;
37069;SDS011;22984;48.862;9.320;2022-07-23T00:55:42;3.22;;;3.03;;
37069;SDS011;22984;48.862;9.320;2022-07-23T00:58:09;3.25;;;2.90;;
37069;SDS011;22984;48.862;9.320;2022-07-23T01:00:35;3.20;;;3.00;;
37069;SDS011;22984;48.862;9.320;2022-07-23T01:03:01;3.50;;;3.20;;
37069;SDS011;22984;48.862;9.320;2022-07-23T01:05:27;3.13;;;2.85;;
37069;SDS011;22984;48.862;9.320;2022-07-23T01:07:53;3.00;;;2.80;;
37069;SDS011;22984;48.862;9.320;2022-07-23T01:10:19;5.45;;;3.20;;
37069;SDS011;22984;48.862;9.320;2022-07-23T01:13:04;3.60;;;3.00;;
37069;SDS011;22984;48.862;9.320;2022-07-23T01:15:31;2.92;;;2.72;;
37069;SDS011;22984;48.862;9.320;2022-07-23T01:17:57;3.30;;;3.00;;
37069;SDS011;22984;48.862;9.320;2022-07-23T01:20:23;3.40;;;3.13;;
37069;SDS011;22984;48.862;9.320;2022-07-23T01:22:50;3.67;;;3.15;;
37069;SDS011;22984;48.862;9.320;2022-07-23T01:25:16;3.33;;;3.03;;
37069;SDS011;22984;48.862;9.320;2022-07-23T01:27:42;3.33;;;3.13;;
37069;SDS011;22984;48.862;9.320;2022-07-23T01:30:09;3.65;;;3.33;;
37069;SDS011;22984;48.862;9.320;2022-07-23T01:32:35;3.33;;;3.13;;
37069;SDS011;22984;48.862;9.320;2022-07-23T01:35:01;3.10;;;2.90;;
37069;SDS011;22984;48.862;9.320;2022-07-23T01:37:27;3.10;;;2.90;;
37069;SDS011;22984;48.862;9.320;2022-07-23T01:39:53;3.47;;;3.17;;
37069;SDS011;22984;48.862;9.320;2022-07-23T01:42:19;2.85;;;2.60;;
37069;SDS011;22984;48.862;9.320;2022-07-23T01:44:45;3.17;;;2.97;;
37069;SDS011;22984;48.862;9.320;2022-07-23T01:47:11;3.00;;;2.90;;
37069;SDS011;22984;48.862;9.320;2022-07-23T01:49:38;3.00;;;2.80;;
37069;SDS011;22984;48.862;9.320;2022-07-23T01:52:04;3.13;;;2.92;;
37069;SDS011;22984;48.862;9.320;2022-07-23T01:54:34;3.45;;;3.15;;
37069;SDS011;22984;48.862;9.320;2022-07-23T01:57:00;3.25;;;2.83;;
37069;SDS011;22984;48.862;9.320;2022-07-23T01:59:26;3.20;;;2.80;;
37069;SDS011;22984;48.862;9.320;2022-07-23T02:01:53;2.90;;;2.70;;
37069;SDS011;22984;48.862;9.320;2022-07-23T02:04:22;3.00;;;2.80;;
37069;SDS011;22984;48.862;9.320;2022-07-23T02:06:49;4.00;;;3.03;;
37069;SDS011;22984;48.862;9.320;2022-07-23T02:09:15;5.35;;;2.97;;
37069;SDS011;22984;48.862;9.320;2022-07-23T02:11:41;3.00;;;2.80;;
37069;SDS011;22984;48.862;9.320;2022-07-23T02:14:08;3.53;;;3.30;;
37069;SDS011;22984;48.862;9.320;2022-07-23T02:16:34;3.88;;;3.03;;
37069;SDS011;22984;48.862;9.320;2022-07-23T02:19:00;3.20;;;3.00;;
37069;SDS011;22984;48.862;9.320;2022-07-23T02:21:26;4.55;;;2.83;;
37069;SDS011;22984;48.862;9.320;2022-07-23T02:23:52;3.88;;;3.25;;
37069;SDS011;22984;48.862;9.320;2022-07-23T02:26:18;3.45;;;3.13;;
37069;SDS011;22984;48.862;9.320;2022-07-23T02:28:44;3.20;;;3.10;;
37069;SDS011;22984;48.862;9.320;2022-07-23T02:31:11;3.45;;;3.25;;
37069;SDS011;22984;48.862;9.320;2022-07-23T02:33:37;4.00;;;3.60;;
37069;SDS011;22984;48.862;9.320;2022-07-23T02:36:03;3.35;;;3.05;;
37069;SDS011;22984;48.862;9.320;2022-07-23T02:38:29;2.80;;;2.60;;
37069;SDS011;22984;48.862;9.320;2022-07-23T02:40:55;3.15;;;2.95;;
37069;SDS011;22984;48.862;9.320;2022-07-23T02:43:22;5.20;;;3.53;;
37069;SDS011;22984;48.862;9.320;2022-07-23T02:45:48;4.25;;;3.38;;
37069;SDS011;22984;48.862;9.320;2022-07-23T02:48:14;3.50;;;2.87;;
37069;SDS011;22984;48.862;9.320;2022-07-23T02:50:40;3.92;;;3.30;;
37069;SDS011;22984;48.862;9.320;2022-07-23T02:53:06;3.80;;;3.50;;
37069;SDS011;22984;48.862;9.320;2022-07-23T02:55:32;3.90;;;3.60;;
37069;SDS011;22984;48.862;9.320;2022-07-23T02:57:58;3.40;;;3.20;;
37069;SDS011;22984;48.862;9.320;2022-07-23T03:00:24;3.40;;;3.20;;
37069;SDS011;22984;48.862;9.320;2022-07-23T03:02:50;5.65;;;3.42;;
37069;SDS011;22984;48.862;9.320;2022-07-23T03:05:16;4.00;;;3.65;;
37069;SDS011;22984;48.862;9.320;2022-07-23T03:07:42;3.50;;;3.30;;
37069;SDS011;22984;48.862;9.320;2022-07-23T03:10:08;3.77;;;3.50;;
37069;SDS011;22984;48.862;9.320;2022-07-23T03:12:34;3.57;;;3.27;;
37069;SDS011;22984;48.862;9.320;2022-07-23T03:15:00;4.70;;;3.22;;
37069;SDS011;22984;48.862;9.320;2022-07-23T03:17:26;4.22;;;3.33;;
37069;SDS011;22984;48.862;9.320;2022-07-23T03:19:52;4.43;;;3.20;;
37069;SDS011;22984;48.862;9.320;2022-07-23T03:22:18;4.05;;;3.67;;
37069;SDS011;22984;48.862;9.320;2022-07-23T03:24:44;3.78;;;3.35;;
37069;SDS011;22984;48.862;9.320;2022-07-23T03:27:23;3.85;;;3.53;;
37069;SDS011;22984;48.862;9.320;2022-07-23T03:29:53;4.38;;;3.97;;
37069;SDS011;22984;48.862;9.320;2022-07-23T03:32:19;3.28;;;3.08;;
37069;SDS011;22984;48.862;9.320;2022-07-23T03:34:45;5.65;;;3.58;;
37069;SDS011;22984;48.862;9.320;2022-07-23T03:37:12;6.55;;;4.05;;
37069;SDS011;22984;48.862;9.320;2022-07-23T03:39:38;4.88;;;4.47;;
37069;SDS011;22984;48.862;9.320;2022-07-23T03:42:04;3.75;;;3.40;;
37069;SDS011;22984;48.862;9.320;2022-07-23T03:44:30;3.70;;;3.50;;
37069;SDS011;22984;48.862;9.320;2022-07-23T03:46:56;3.95;;;3.60;;
37069;SDS011;22984;48.862;9.320;2022-07-23T03:49:22;4.00;;;3.70;;
37069;SDS011;22984;48.862;9.320;2022-07-23T03:51:49;3.70;;;3.40;;
37069;SDS011;22984;48.862;9.320;2022-07-23T03:54:15;4.25;;;3.85;;
37069;SDS011;22984;48.862;9.320;2022-07-23T03:56:41;4.45;;;4.00;;
37069;SDS011;22984;48.862;9.320;2022-07-23T03:59:08;4.05;;;3.20;;
37069;SDS011;22984;48.862;9.320;2022-07-23T04:01:34;4.68;;;3.70;;
37069;SDS011;22984;48.862;9.320;2022-07-23T04:04:00;4.03;;;3.70;;
37069;SDS011;22984;48.862;9.320;2022-07-23T04:06:26;3.80;;;3.50;;
37069;SDS011;22984;48.862;9.320;2022-07-23T04:08:52;4.60;;;3.67;;
37069;SDS011;22984;48.862;9.320;2022-07-23T04:11:18;3.70;;;3.40;;
37069;SDS011;22984;48.862;9.320;2022-07-23T04:13:44;8.18;;;4.10;;
37069;SDS011;22984;48.862;9.320;2022-07-23T04:16:10;4.05;;;3.75;;
37069;SDS011;22984;48.862;9.320;2022-07-23T04:18:36;3.90;;;3.60;;
37069;SDS011;22984;48.862;9.320;2022-07-23T04:21:02;4.32;;;3.53;;
37069;SDS011;22984;48.862;9.320;2022-07-23T04:23:28;5.07;;;3.90;;
37069;SDS011;22984;48.862;9.320;2022-07-23T04:25:54;3.67;;;3.35;;
37069;SDS011;22984;48.862;9.320;2022-07-23T04:28:20;4.32;;;3.95;;
37069;SDS011;22984;48.862;9.320;2022-07-23T04:30:46;4.30;;;3.90;;
37069;SDS011;22984;48.862;9.320;2022-07-23T04:33:13;4.20;;;3.90;;
37069;SDS011;22984;48.862;9.320;2022-07-23T04:35:39;6.70;;;4.33;;
37069;SDS011;22984;48.862;9.320;2022-07-23T04:38:05;3.73;;;3.43;;
37069;SDS011;22984;48.862;9.320;2022-07-23T04:40:31;4.28;;;3.90;;
37069;SDS011;22984;48.862;9.320;2022-07-23T04:42:57;4.20;;;3.90;;
37069;SDS011;22984;48.862;9.320;2022-07-23T04:45:23;3.80;;;3.50;;
37069;SDS011;22984;48.862;9.320;2022-07-23T04:47:50;3.90;;;3.60;;
37069;SDS011;22984;48.862;9.320;2022-07-23T04:50:16;5.80;;;3.85;;
37069;SDS011;22984;48.862;9.320;2022-07-23T04:52:46;4.05;;;3.70;;
37069;SDS011;22984;48.862;9.320;2022-07-23T04:55:12;6.60;;;3.80;;
37069;SDS011;22984;48.862;9.320;2022-07-23T04:57:38;4.40;;;4.00;;
37069;SDS011;22984;48.862;9.320;2022-07-23T05:00:04;4.07;;;3.78;;
37069;SDS011;22984;48.862;9.320;2022-07-23T05:02:30;3.50;;;3.30;;
37069;SDS011;22984;48.862;9.320;2022-07-23T05:04:56;4.28;;;3.90;;
37069;SDS011;22984;48.862;9.320;2022-07-23T05:07:22;3.97;;;3.38;;
37069;SDS011;22984;48.862;9.320;2022-07-23T05:09:49;6.20;;;3.90;;
37069;SDS011;22984;48.862;9.320;2022-07-23T05:12:15;3.90;;;3.60;;
37069;SDS011;22984;48.862;9.320;2022-07-23T05:14:41;4.13;;;3.92;;
37069;SDS011;22984;48.862;9.320;2022-07-23T05:17:07;4.88;;;3.97;;
37069;SDS011;22984;48.862;9.320;2022-07-23T05:19:34;3.88;;;3.53;;
37069;SDS011;22984;48.862;9.320;2022-07-23T05:22:00;4.45;;;3.65;;
37069;SDS011;22984;48.862;9.320;2022-07-23T05:24:26;4.40;;;3.67;;
37069;SDS011;22984;48.862;9.320;2022-07-23T05:26:52;6.60;;;3.80;;
37069;SDS011;22984;48.862;9.320;2022-07-23T05:29:18;4.10;;;3.77;;
37069;SDS011;22984;48.862;9.320;2022-07-23T05:31:44;4.18;;;3.88;;
37069;SDS011;22984;48.862;9.320;2022-07-23T05:34:10;4.40;;;3.90;;
37069;SDS011;22984;48.862;9.320;2022-07-23T05:36:36;4.15;;;3.80;;
37069;SDS011;22984;48.862;9.320;2022-07-23T05:39:03;4.00;;;3.70;;
37069;SDS011;22984;48.862;9.320;2022-07-23T05:41:29;7.53;;;3.97;;
37069;SDS011;22984;48.862;9.320;2022-07-23T05:43:56;4.15;;;3.75;;
37069;SDS011;22984;48.862;9.320;2022-07-23T05:46:22;3.90;;;3.60;;
37069;SDS011;22984;48.862;9.320;2022-07-23T05:48:48;3.90;;;3.70;;
37069;SDS011;22984;48.862;9.320;2022-07-23T05:51:24;4.22;;;3.83;;
37069;SDS011;22984;48.862;9.320;2022-07-23T05:53:50;5.43;;;3.83;;
37069;SDS011;22984;48.862;9.320;2022-07-23T05:56:17;3.85;;;3.50;;
37069;SDS011;22984;48.862;9.320;2022-07-23T05:58:43;4.45;;;4.05;;
37069;SDS011;22984;48.862;9.320;2022-07-23T06:01:10;4.78;;;4.05;;
37069;SDS011;22984;48.862;9.320;2022-07-23T06:03:37;4.28;;;3.97;;
37069;SDS011;22984;48.862;9.320;2022-07-23T06:06:03;7.90;;;4.15;;
37069;SDS011;22984;48.862;9.320;2022-07-23T06:08:29;4.80;;;4.30;;
37069;SDS011;22984;48.862;9.320;2022-07-23T06:10:55;4.55;;;4.25;;
37069;SDS011;22984;48.862;9.320;2022-07-23T06:13:21;4.95;;;4.22;;
37069;SDS011;22984;48.862;9.320;2022-07-23T06:15:47;3.83;;;3.50;;
37069;SDS011;22984;48.862;9.320;2022-07-23T06:18:13;5.22;;;4.72;;
37069;SDS011;22984;48.862;9.320;2022-07-23T06:20:40;4.70;;;4.30;;
37069;SDS011;22984;48.862;9.320;2022-07-23T06:23:06;10.50;;;4.85;;
37069;SDS011;22984;48.862;9.320;2022-07-23T06:25:32;7.15;;;4.38;;
37069;SDS011;22984;48.862;9.320;2022-07-23T06:27:59;5.25;;;4.57;;
37069;SDS011;22984;48.862;9.320;2022-07-23T06:30:25;12.10;;;4.82;;
37069;SDS011;22984;48.862;9.320;2022-07-23T06:32:51;7.53;;;4.75;;
37069;SDS011;22984;48.862;9.320;2022-07-23T06:35:17;5.73;;;4.67;;
37069;SDS011;22984;48.862;9.320;2022-07-23T06:37:43;5.72;;;4.88;;
37069;SDS011;22984;48.862;9.320;2022-07-23T06:40:09;10.40;;;5.38;;
37069;SDS011;22984;48.862;9.320;2022-07-23T06:42:35;6.68;;;5.38;;
37069;SDS011;22984;48.862;9.320;2022-07-23T06:45:04;5.72;;;5.22;;
37069;SDS011;22984;48.862;9.320;2022-07-23T06:47:31;5.88;;;5.30;;
37069;SDS011;22984;48.862;9.320;2022-07-23T06:49:57;5.38;;;4.88;;
37069;SDS011;22984;48.862;9.320;2022-07-23T06:52:23;5.03;;;4.57;;
37069;SDS011;22984;48.862;9.320;2022-07-23T06:54:49;7.53;;;5.35;;
37069;SDS011;22984;48.862;9.320;2022-07-23T06:57:15;5.97;;;5.00;;
37069;SDS011;22984;48.862;9.320;2022-07-23T06:59:41;5.93;;;5.53;;
37069;SDS011;22984;48.862;9.320;2022-07-23T07:02:08;8.07;;;5.73;;
37069;SDS011;22984;48.862;9.320;2022-07-23T07:04:34;8.43;;;6.00;;
37069;SDS011;22984;48.862;9.320;2022-07-23T07:07:00;9.95;;;5.82;;
37069;SDS011;22984;48.862;9.320;2022-07-23T07:09:26;5.80;;;5.30;;
37069;SDS011;22984;48.862;9.320;2022-07-23T07:11:52;5.95;;;5.55;;
37069;SDS011;22984;48.862;9.320;2022-07-23T07:14:18;5.75;;;5.18;;
37069;SDS011;22984;48.862;9.320;2022-07-23T07:16:44;8.93;;;5.63;;
37069;SDS011;22984;48.862;9.320;2022-07-23T07:19:10;6.47;;;5.88;;
37069;SDS011;22984;48.862;9.320;2022-07-23T07:21:36;6.43;;;5.82;;
37069;SDS011;22984;48.862;9.320;2022-07-23T07:24:02;6.28;;;5.78;;
37069;SDS011;22984;48.862;9.320;2022-07-23T07:26:28;6.70;;;6.00;;
37069;SDS011;22984;48.862;9.320;2022-07-23T07:28:55;6.40;;;5.80;;
37069;SDS011;22984;48.862;9.320;2022-07-23T07:31:22;6.82;;;5.97;;
37069;SDS011;22984;48.862;9.320;2022-07-23T07:33:48;7.47;;;6.78;;
37069;SDS011;22984;48.862;9.320;2022-07-23T07:36:14;7.78;;;5.95;;
37069;SDS011;22984;48.862;9.320;2022-07-23T07:38:40;9.73;;;6.68;;
37069;SDS011;22984;48.862;9.320;2022-07-23T07:41:06;7.13;;;6.07;;
37069;SDS011;22984;48.862;9.320;2022-07-23T07:43:33;11.55;;;6.30;;
37069;SDS011;22984;48.862;9.320;2022-07-23T07:45:59;9.13;;;7.07;;
37069;SDS011;22984;48.862;9.320;2022-07-23T07:48:25;8.13;;;7.43;;
37069;SDS011;22984;48.862;9.320;2022-07-23T07:50:51;8.15;;;7.30;;
37069;SDS011;22984;48.862;9.320;2022-07-23T07:53:17;7.93;;;6.53;;
37069;SDS011;22984;48.862;9.320;2022-07-23T07:55:43;6.78;;;6.28;;
37069;SDS011;22984;48.862;9.320;2022-07-23T07:58:09;6.95;;;6.35;;
37069;SDS011;22984;48.862;9.320;2022-07-23T08:00:35;7.45;;;6.85;;
37069;SDS011;22984;48.862;9.320;2022-07-23T08:03:01;6.47;;;5.90;;
37069;SDS011;22984;48.862;9.320;2022-07-23T08:05:28;11.00;;;6.53;;
37069;SDS011;22984;48.862;9.320;2022-07-23T08:07:54;7.05;;;6.45;;
37069;SDS011;22984;48.862;9.320;2022-07-23T08:10:21;7.35;;;6.22;;
37069;SDS011;22984;48.862;9.320;2022-07-23T08:12:50;7.77;;;6.97;;
37069;SDS011;22984;48.862;9.320;2022-07-23T08:15:18;9.33;;;6.63;;
37069;SDS011;22984;48.862;9.320;2022-07-23T08:17:45;7.63;;;6.80;;
37069;SDS011;22984;48.862;9.320;2022-07-23T08:20:12;7.32;;;6.53;;
37069;SDS011;22984;48.862;9.320;2022-07-23T08:22:57;6.30;;;5.90;;
37069;SDS011;22984;48.862;9.320;2022-07-23T08:25:30;6.40;;;5.85;;
37069;SDS011;22984;48.862;9.320;2022-07-23T08:28:00;6.53;;;6.13;;
37069;SDS011;22984;48.862;9.320;2022-07-23T08:30:27;6.28;;;5.68;;
37069;SDS011;22984;48.862;9.320;2022-07-23T08:35:26;5.82;;;5.40;;
37069;SDS011;22984;48.862;9.320;2022-07-23T08:37:52;5.93;;;5.43;;
37069;SDS011;22984;48.862;9.320;2022-07-23T08:40:19;6.45;;;5.85;;
37069;SDS011;22984;48.862;9.320;2022-07-23T08:42:47;6.65;;;6.13;;
37069;SDS011;22984;48.862;9.320;2022-07-23T08:45:13;6.35;;;5.90;;
37069;SDS011;22984;48.862;9.320;2022-07-23T08:47:41;6.10;;;5.60;;
37069;SDS011;22984;48.862;9.320;2022-07-23T08:50:07;5.60;;;5.13;;
37069;SDS011;22984;48.862;9.320;2022-07-23T08:52:33;5.57;;;5.27;;
37069;SDS011;22984;48.862;9.320;2022-07-23T08:54:59;6.47;;;5.88;;
37069;SDS011;22984;48.862;9.320;2022-07-23T08:57:26;8.45;;;6.38;;
37069;SDS011;22984;48.862;9.320;2022-07-23T08:59:52;6.18;;;5.68;;
37069;SDS011;22984;48.862;9.320;2022-07-23T09:02:18;6.95;;;6.30;;
37069;SDS011;22984;48.862;9.320;2022-07-23T09:04:44;6.20;;;5.80;;
37069;SDS011;22984;48.862;9.320;2022-07-23T09:07:10;5.07;;;4.70;;
37069;SDS011;22984;48.862;9.320;2022-07-23T09:09:36;5.23;;;4.60;;
37069;SDS011;22984;48.862;9.320;2022-07-23T09:12:09;5.18;;;4.78;;
37069;SDS011;22984;48.862;9.320;2022-07-23T09:14:42;5.63;;;5.20;;
37069;SDS011;22984;48.862;9.320;2022-07-23T09:17:16;5.67;;;4.90;;
37069;SDS011;22984;48.862;9.320;2022-07-23T09:19:43;4.90;;;4.57;;
37069;SDS011;22984;48.862;9.320;2022-07-23T09:22:18;5.00;;;4.60;;
37069;SDS011;22984;48.862;9.320;2022-07-23T09:25:07;4.78;;;4.47;;
37069;SDS011;22984;48.862;9.320;2022-07-23T09:30:17;4.68;;;4.22;;
37069;SDS011;22984;48.862;9.320;2022-07-23T09:32:43;5.18;;;4.40;;
37069;SDS011;22984;48.862;9.320;2022-07-23T09:35:10;4.83;;;4.60;;
37069;SDS011;22984;48.862;9.320;2022-07-23T09:37:36;4.75;;;4.45;;
37069;SDS011;22984;48.862;9.320;2022-07-23T09:42:31;5.05;;;4.57;;
37069;SDS011;22984;48.862;9.320;2022-07-23T09:44:58;4.63;;;4.32;;
37069;SDS011;22984;48.862;9.320;2022-07-23T09:47:25;6.13;;;4.50;;
37069;SDS011;22984;48.862;9.320;2022-07-23T09:50:08;4.75;;;4.40;;
37069;SDS011;22984;48.862;9.320;2022-07-23T09:52:46;4.70;;;4.38;;
37069;SDS011;22984;48.862;9.320;2022-07-23T09:55:13;4.93;;;4.43;;
37069;SDS011;22984;48.862;9.320;2022-07-23T09:57:40;4.70;;;4.40;;
37069;SDS011;22984;48.862;9.320;2022-07-23T10:00:07;4.90;;;4.50;;
37069;SDS011;22984;48.862;9.320;2022-07-23T10:02:35;4.93;;;4.63;;
37069;SDS011;22984;48.862;9.320;2022-07-23T10:05:02;4.50;;;4.13;;
37069;SDS011;22984;48.862;9.320;2022-07-23T10:07:31;4.43;;;4.07;;
37069;SDS011;22984;48.862;9.320;2022-07-23T10:09:58;5.25;;;4.05;;
37069;SDS011;22984;48.862;9.320;2022-07-23T10:12:25;4.22;;;3.83;;
37069;SDS011;22984;48.862;9.320;2022-07-23T10:15:10;4.33;;;4.03;;
37069;SDS011;22984;48.862;9.320;2022-07-23T10:17:36;4.18;;;3.95;;
37069;SDS011;22984;48.862;9.320;2022-07-23T10:20:03;4.53;;;4.13;;
37069;SDS011;22984;48.862;9.320;2022-07-23T10:22:37;4.30;;;4.10;;
37069;SDS011;22984;48.862;9.320;2022-07-23T10:30:50;4.20;;;3.90;;
37069;SDS011;22984;48.862;9.320;2022-07-23T10:33:30;3.77;;;3.57;;
37069;SDS011;22984;48.862;9.320;2022-07-23T10:36:05;4.82;;;3.92;;
37069;SDS011;22984;48.862;9.320;2022-07-23T10:38:37;4.25;;;3.83;;
37069;SDS011;22984;48.862;9.320;2022-07-23T10:41:07;3.80;;;3.60;;
37069;SDS011;22984;48.862;9.320;2022-07-23T10:43:33;3.85;;;3.55;;
37069;SDS011;22984;48.862;9.320;2022-07-23T10:48:44;4.80;;;4.40;;
37069;SDS011;22984;48.862;9.320;2022-07-23T10:51:11;3.92;;;3.70;;
37069;SDS011;22984;48.862;9.320;2022-07-23T10:56:17;4.00;;;3.60;;
37069;SDS011;22984;48.862;9.320;2022-07-23T10:58:47;3.90;;;3.67;;
37069;SDS011;22984;48.862;9.320;2022-07-23T11:01:30;4.95;;;4.40;;
37069;SDS011;22984;48.862;9.320;2022-07-23T11:03:57;6.10;;;4.00;;
37069;SDS011;22984;48.862;9.320;2022-07-23T11:09:26;3.92;;;3.60;;
37069;SDS011;22984;48.862;9.320;2022-07-23T11:17:22;4.00;;;3.80;;
37069;SDS011;22984;48.862;9.320;2022-07-23T11:20:12;3.75;;;3.45;;
37069;SDS011;22984;48.862;9.320;2022-07-23T11:22:38;3.63;;;3.43;;
37069;SDS011;22984;48.862;9.320;2022-07-23T11:25:05;3.53;;;3.33;;
37069;SDS011;22984;48.862;9.320;2022-07-23T11:27:42;3.90;;;3.50;;
37069;SDS011;22984;48.862;9.320;2022-07-23T11:30:09;3.85;;;3.53;;
37069;SDS011;22984;48.862;9.320;2022-07-23T11:32:39;3.60;;;3.30;;
37069;SDS011;22984;48.862;9.320;2022-07-23T11:35:18;3.92;;;3.40;;
37069;SDS011;22984;48.862;9.320;2022-07-23T11:37:45;4.25;;;3.85;;
37069;SDS011;22984;48.862;9.320;2022-07-23T11:40:13;4.20;;;3.90;;
37069;SDS011;22984;48.862;9.320;2022-07-23T11:42:41;3.90;;;3.70;;
37069;SDS011;22984;48.862;9.320;2022-07-23T11:45:19;4.10;;;3.80;;
37069;SDS011;22984;48.862;9.320;2022-07-23T11:47:48;4.13;;;3.83;;
37069;SDS011;22984;48.862;9.320;2022-07-23T11:50:14;3.90;;;3.60;;
37069;SDS011;22984;48.862;9.320;2022-07-23T11:52:43;3.60;;;3.40;;
37069;SDS011;22984;48.862;9.320;2022-07-23T11:55:22;3.97;;;3.70;;
37069;SDS011;22984;48.862;9.320;2022-07-23T11:57:50;5.72;;;3.70;;
37069;SDS011;22984;48.862;9.320;2022-07-23T12:00:17;3.83;;;3.53;;
37069;SDS011;22984;48.862;9.320;2022-07-23T12:02:48;3.92;;;3.70;;
37069;SDS011;22984;48.862;9.320;2022-07-23T12:05:16;4.10;;;3.80;;
37069;SDS011;22984;48.862;9.320;2022-07-23T12:07:42;3.90;;;3.55;;
37069;SDS011;22984;48.862;9.320;2022-07-23T12:10:19;4.83;;;3.70;;
37069;SDS011;22984;48.862;9.320;2022-07-23T12:12:50;5.23;;;3.50;;
37069;SDS011;22984;48.862;9.320;2022-07-23T12:15:18;3.58;;;3.30;;
37069;SDS011;22984;48.862;9.320;2022-07-23T12:17:46;4.00;;;3.70;;
37069;SDS011;22984;48.862;9.320;2022-07-23T12:20:13;3.80;;;3.50;;
37069;SDS011;22984;48.862;9.320;2022-07-23T12:22:41;3.92;;;3.72;;
37069;SDS011;22984;48.862;9.320;2022-07-23T12:25:09;3.60;;;3.40;;
37069;SDS011;22984;48.862;9.320;2022-07-23T12:27:35;3.30;;;3.10;;
37069;SDS011;22984;48.862;9.320;2022-07-23T12:32:43;3.53;;;3.33;;
37069;SDS011;22984;48.862;9.320;2022-07-23T12:35:10;6.10;;;3.38;;
37069;SDS011;22984;48.862;9.320;2022-07-23T12:37:37;4.60;;;3.40;;
37069;SDS011;22984;48.862;9.320;2022-07-23T12:42:49;3.42;;;3.13;;
37069;SDS011;22984;48.862;9.320;2022-07-23T12:45:16;4.07;;;3.67;;
37069;SDS011;22984;48.862;9.320;2022-07-23T12:47:59;5.65;;;3.53;;
37069;SDS011;22984;48.862;9.320;2022-07-23T12:55:37;4.47;;;4.28;;
37069;SDS011;22984;48.862;9.320;2022-07-23T13:03:26;4.20;;;3.80;;
37069;SDS011;22984;48.862;9.320;2022-07-23T13:05:52;4.60;;;3.80;;
37069;SDS011;22984;48.862;9.320;2022-07-23T13:08:34;4.80;;;4.40;;
37069;SDS011;22984;48.862;9.320;2022-07-23T13:11:01;4.53;;;3.78;;
37069;SDS011;22984;48.862;9.320;2022-07-23T13:13:28;4.30;;;3.85;;
37069;SDS011;22984;48.862;9.320;2022-07-23T13:15:54;4.68;;;4.38;;
37069;SDS011;22984;48.862;9.320;2022-07-23T13:18:21;8.32;;;4.63;;
37069;SDS011;22984;48.862;9.320;2022-07-23T13:20:47;4.40;;;4.10;;
37069;SDS011;22984;48.862;9.320;2022-07-23T13:23:31;5.25;;;4.70;;
37069;SDS011;22984;48.862;9.320;2022-07-23T13:25:57;4.63;;;4.43;;
37069;SDS011;22984;48.862;9.320;2022-07-23T13:28:23;5.07;;;4.68;;
37069;SDS011;22984;48.862;9.320;2022-07-23T13:30:50;7.87;;;4.73;;
37069;SDS011;22984;48.862;9.320;2022-07-23T13:33:17;5.18;;;4.50;;
37069;SDS011;22984;48.862;9.320;2022-07-23T13:35:47;4.95;;;4.65;;
37069;SDS011;22984;48.862;9.320;2022-07-23T13:38:19;5.05;;;4.63;;
37069;SDS011;22984;48.862;9.320;2022-07-23T13:40:46;4.47;;;4.18;;
37069;SDS011;22984;48.862;9.320;2022-07-23T13:43:14;4.95;;;4.65;;
37069;SDS011;22984;48.862;9.320;2022-07-23T13:45:41;5.18;;;4.78;;
37069;SDS011;22984;48.862;9.320;2022-07-23T13:48:07;5.00;;;4.63;;
37069;SDS011;22984;48.862;9.320;2022-07-23T13:50:34;5.75;;;5.35;;
37069;SDS011;22984;48.862;9.320;2022-07-23T13:53:19;7.40;;;5.22;;
37069;SDS011;22984;48.862;9.320;2022-07-23T13:55:45;5.00;;;4.60;;
37069;SDS011;22984;48.862;9.320;2022-07-23T13:58:12;5.13;;;4.63;;
37069;SDS011;22984;48.862;9.320;2022-07-23T14:00:39;5.05;;;4.68;;
37069;SDS011;22984;48.862;9.320;2022-07-23T14:03:05;4.82;;;4.43;;
37069;SDS011;22984;48.862;9.320;2022-07-23T14:05:32;5.05;;;4.63;;
37069;SDS011;22984;48.862;9.320;2022-07-23T14:07:58;5.38;;;4.88;;
37069;SDS011;22984;48.862;9.320;2022-07-23T14:10:24;4.70;;;4.40;;
37069;SDS011;22984;48.862;9.320;2022-07-23T14:12:51;5.00;;;4.60;;
37069;SDS011;22984;48.862;9.320;2022-07-23T14:15:22;5.17;;;4.27;;
37069;SDS011;22984;48.862;9.320;2022-07-23T14:17:48;5.50;;;5.10;;
37069;SDS011;22984;48.862;9.320;2022-07-23T14:20:15;5.05;;;4.65;;
37069;SDS011;22984;48.862;9.320;2022-07-23T14:22:41;5.00;;;4.65;;
37069;SDS011;22984;48.862;9.320;2022-07-23T14:25:08;4.70;;;4.30;;
37069;SDS011;22984;48.862;9.320;2022-07-23T14:27:34;4.40;;;4.20;;
37069;SDS011;22984;48.862;9.320;2022-07-23T14:30:02;4.63;;;4.32;;
37069;SDS011;22984;48.862;9.320;2022-07-23T14:32:28;4.47;;;4.17;;
37069;SDS011;22984;48.862;9.320;2022-07-23T14:34:54;4.47;;;4.07;;
37069;SDS011;22984;48.862;9.320;2022-07-23T14:37:20;4.70;;;4.43;;
37069;SDS011;22984;48.862;9.320;2022-07-23T14:39:47;4.35;;;4.05;;
37069;SDS011;22984;48.862;9.320;2022-07-23T14:42:13;4.45;;;4.15;;
37069;SDS011;22984;48.862;9.320;2022-07-23T14:44:39;4.22;;;3.90;;
37069;SDS011;22984;48.862;9.320;2022-07-23T14:47:07;6.60;;;4.07;;
37069;SDS011;22984;48.862;9.320;2022-07-23T14:49:33;4.60;;;4.30;;
37069;SDS011;22984;48.862;9.320;2022-07-23T14:52:00;4.20;;;3.80;;
37069;SDS011;22984;48.862;9.320;2022-07-23T14:54:27;4.82;;;4.53;;
37069;SDS011;22984;48.862;9.320;2022-07-23T14:56:56;4.65;;;4.35;;
37069;SDS011;22984;48.862;9.320;2022-07-23T14:59:22;4.32;;;4.03;;
37069;SDS011;22984;48.862;9.320;2022-07-23T15:01:48;5.28;;;4.30;;
37069;SDS011;22984;48.862;9.320;2022-07-23T15:04:15;5.63;;;4.33;;
37069;SDS011;22984;48.862;9.320;2022-07-23T15:06:41;4.93;;;4.50;;
37069;SDS011;22984;48.862;9.320;2022-07-23T15:09:07;4.78;;;4.38;;
37069;SDS011;22984;48.862;9.320;2022-07-23T15:11:33;5.22;;;4.85;;
37069;SDS011;22984;48.862;9.320;2022-07-23T15:14:01;5.07;;;4.70;;
37069;SDS011;22984;48.862;9.320;2022-07-23T15:16:27;5.78;;;5.22;;
37069;SDS011;22984;48.862;9.320;2022-07-23T15:18:53;5.85;;;5.38;;
37069;SDS011;22984;48.862;9.320;2022-07-23T15:21:20;5.20;;;4.90;;
37069;SDS011;22984;48.862;9.320;2022-07-23T15:23:46;5.60;;;5.20;;
37069;SDS011;22984;48.862;9.320;2022-07-23T15:26:12;6.23;;;5.00;;
37069;SDS011;22984;48.862;9.320;2022-07-23T15:28:39;8.20;;;5.07;;
37069;SDS011;22984;48.862;9.320;2022-07-23T15:31:07;5.57;;;5.18;;
37069;SDS011;22984;48.862;9.320;2022-07-23T15:33:33;5.45;;;5.13;;